Sign in

Advertising

Info

Aviation weather - KDAB

METAR KDAB 240553Z 08010KT 10SM SCT024 SCT032 25/20 A3022 RMK AO2 SLP232 60043 T02500200 10267 20233 58009

TAF KDAB 240523Z 2406/2506 08007KT P6SM SCT025 SCT040 FM241400 09011KT P6SM SCT020 SCT035 BKN045 FM241900 10012G20KT P6SM FEW030 BKN045 FM250000 09011KT P6SM FEW030 SCT250

ADDS Experimental. Do not use for flight-related decisions.

Javascript required. Ce site nécessite javascript